Time;durP1;ratioP1;P1;durP2;ratioP2;P2;SDS_P1;SDS_P2;PMS_P1;PMS_P2;Temp;Humidity;BMP_temperature;BMP_pressure;BME280_temperature;BME280_humidity;BME280_pressure;Samples;Min_cycle;Max_cycle;Signal;HPM_P1;HPM_P2
2023/02/03 00:01:43;;;;;;;74.57;12.50;;;9.70;88.90;;;;;;5106535;28;20028;-55
2023/02/03 00:04:09;;;;;;;63.95;11.05;;;9.70;88.90;;;;;;5089323;28;20475;-56
2023/02/03 00:06:34;;;;;;;63.92;11.27;;;9.70;88.90;;;;;;5106716;28;20065;-55
2023/02/03 00:09:00;;;;;;;53.35;10.38;;;9.70;88.80;;;;;;5106267;28;20085;-56
2023/02/03 00:11:28;;;;;;;58.10;10.90;;;9.60;88.80;;;;;;5106555;28;20028;-56
2023/02/03 00:13:53;;;;;;;71.85;11.25;;;9.60;88.80;;;;;;5107865;28;20031;-56
2023/02/03 00:16:19;;;;;;;68.68;11.82;;;9.60;88.90;;;;;;5107635;28;20059;-56
2023/02/03 00:18:44;;;;;;;56.28;10.68;;;9.60;88.80;;;;;;5107633;28;20024;-56
2023/02/03 00:21:10;;;;;;;53.75;10.20;;;9.60;88.70;;;;;;5107516;28;20040;-56
2023/02/03 00:23:35;;;;;;;55.30;10.00;;;9.60;88.80;;;;;;5107342;28;20071;-56
2023/02/03 00:26:08;;;;;;;51.08;10.05;;;9.60;88.80;;;;;;5106566;28;20039;-56
2023/02/03 00:28:34;;;;;;;54.90;10.27;;;9.50;88.80;;;;;;5105993;28;20020;-55
2023/02/03 00:30:59;;;;;;;59.00;9.88;;;9.60;88.90;;;;;;5106177;28;20165;-56
2023/02/03 00:33:25;;;;;;;60.22;10.50;;;9.50;88.90;;;;;;5089091;28;20034;-56
2023/02/03 00:35:50;;;;;;;46.08;9.68;;;9.50;88.90;;;;;;5088913;28;20032;-56
2023/02/03 00:38:16;;;;;;;58.65;9.38;;;9.50;88.90;;;;;;5107196;28;20028;-56
2023/02/03 00:40:41;;;;;;;41.47;9.90;;;9.50;88.90;;;;;;5105824;28;20048;-56
2023/02/03 00:43:07;;;;;;;38.35;9.35;;;9.40;88.90;;;;;;5105845;28;20027;-56
2023/02/03 00:45:32;;;;;;;36.10;8.88;;;9.40;88.90;;;;;;5106015;28;20110;-56
2023/02/03 00:47:58;;;;;;;40.97;8.50;;;9.40;88.90;;;;;;5106896;28;20044;-56
2023/02/03 00:50:23;;;;;;;41.70;8.32;;;9.40;88.50;;;;;;5107068;28;20100;-56
2023/02/03 00:52:49;;;;;;;48.13;8.27;;;9.40;88.60;;;;;;5105988;28;20054;-56
2023/02/03 00:55:15;;;;;;;46.42;9.07;;;9.40;88.60;;;;;;5105537;28;20571;-56
2023/02/03 00:57:40;;;;;;;44.00;9.00;;;9.30;88.80;;;;;;5106964;28;20081;-55
2023/02/03 01:00:06;;;;;;;38.50;8.50;;;9.30;88.90;;;;;;5106523;28;20056;-55
2023/02/03 01:02:32;;;;;;;46.05;8.65;;;9.30;88.80;;;;;;5088722;28;20104;-55
2023/02/03 01:04:57;;;;;;;43.58;9.15;;;9.30;88.60;;;;;;5104588;28;20042;-55
2023/02/03 01:07:23;;;;;;;42.90;9.02;;;9.30;88.80;;;;;;5106816;28;20085;-55
2023/02/03 01:09:48;;;;;;;38.10;7.97;;;9.20;88.80;;;;;;5105239;28;20072;-56
2023/02/03 01:12:14;;;;;;;29.60;7.35;;;9.20;88.80;;;;;;5106862;28;20032;-56
2023/02/03 01:14:40;;;;;;;38.55;7.57;;;9.20;88.70;;;;;;5104998;28;20089;-56
2023/02/03 01:17:05;;;;;;;30.38;7.10;;;9.20;88.60;;;;;;5105282;28;20475;-56
2023/02/03 01:19:31;;;;;;;32.97;6.30;;;9.20;88.60;;;;;;5106516;28;20028;-55
2023/02/03 01:21:56;;;;;;;36.28;6.85;;;9.20;88.60;;;;;;5106129;28;20032;-55
2023/02/03 01:24:22;;;;;;;32.20;7.10;;;9.20;88.60;;;;;;5106510;28;20054;-56
2023/02/03 01:26:47;;;;;;;35.45;7.10;;;9.10;88.70;;;;;;5105045;28;20111;-56
2023/02/03 01:29:13;;;;;;;34.38;7.53;;;9.10;88.80;;;;;;5104676;28;20029;-56
2023/02/03 01:31:39;;;;;;;29.02;7.35;;;9.10;88.90;;;;;;5105064;28;20020;-56
2023/02/03 01:34:05;;;;;;;43.25;7.20;;;9.10;89.00;;;;;;5087623;28;20043;-56
2023/02/03 01:36:32;;;;;;;36.95;6.45;;;9.10;89.00;;;;;;5106200;28;20028;-56
2023/02/03 01:38:57;;;;;;;30.48;6.43;;;9.10;89.00;;;;;;5104903;28;20061;-56
2023/02/03 01:41:25;;;;;;;32.03;6.82;;;9.00;89.50;;;;;;5104532;28;20024;-56
2023/02/03 01:43:52;;;;;;;35.03;7.85;;;9.00;89.00;;;;;;5106180;28;20088;-56
2023/02/03 01:46:28;;;;;;;29.42;7.25;;;9.00;89.10;;;;;;5105933;28;20020;-56
2023/02/03 01:49:17;;;;;;;23.92;7.18;;;9.00;89.30;;;;;;5105686;28;20102;-55
2023/02/03 01:51:43;;;;;;;27.25;7.07;;;9.00;89.20;;;;;;5092064;28;20032;-55
2023/02/03 01:54:11;;;;;;;29.13;6.57;;;9.00;89.30;;;;;;5104201;28;20092;-55
2023/02/03 01:56:37;;;;;;;23.77;6.25;;;9.00;89.40;;;;;;5104509;28;20024;-56
2023/02/03 01:59:03;;;;;;;29.17;6.35;;;9.00;89.40;;;;;;5104349;28;20055;-56
2023/02/03 02:01:29;;;;;;;24.50;6.43;;;9.00;89.40;;;;;;5087119;28;20024;-56
2023/02/03 02:03:55;;;;;;;25.75;6.10;;;9.00;89.40;;;;;;5104504;28;20028;-56
2023/02/03 02:06:21;;;;;;;24.33;6.40;;;9.00;89.40;;;;;;5104195;28;20020;-56
2023/02/03 02:08:49;;;;;;;28.77;7.35;;;9.00;89.40;;;;;;5104202;28;20031;-56
2023/02/03 02:11:14;;;;;;;26.42;7.00;;;9.00;89.40;;;;;;5104494;28;20039;-56
2023/02/03 02:13:40;;;;;;;20.85;6.20;;;9.00;89.60;;;;;;5103756;28;20028;-56
2023/02/03 02:16:44;;;;;;;27.40;6.95;;;9.00;89.60;;;;;;5103851;28;20032;-56
2023/02/03 02:19:29;;;;;;;26.13;6.47;;;9.00;89.60;;;;;;5104597;28;20051;-55
2023/02/03 02:22:03;;;;;;;25.23;5.70;;;9.00;89.50;;;;;;5105278;28;20054;-56
2023/02/03 02:25:03;;;;;;;27.27;6.78;;;9.00;89.40;;;;;;5105580;28;20032;-56
2023/02/03 02:28:01;;;;;;;21.05;5.75;;;9.00;89.30;;;;;;5105313;28;20045;-55
2023/02/03 02:30:37;;;;;;;26.33;6.75;;;8.90;89.30;;;;;;5104167;28;20032;-55
2023/02/03 02:33:14;;;;;;;17.73;5.85;;;8.90;89.50;;;;;;5103910;28;20028;-55
2023/02/03 02:36:03;;;;;;;23.05;5.72;;;8.90;89.30;;;;;;5104197;28;20032;-55
2023/02/03 02:39:07;;;;;;;21.92;6.85;;;8.90;89.40;;;;;;5105230;28;20034;-56
2023/02/03 02:41:42;;;;;;;17.25;6.15;;;8.90;89.50;;;;;;5103747;28;20067;-56
2023/02/03 02:44:13;;;;;;;21.70;5.75;;;8.90;89.60;;;;;;5103929;28;20024;-56
2023/02/03 02:46:57;;;;;;;29.45;7.13;;;8.90;90.00;;;;;;5086609;28;20137;-56
2023/02/03 02:49:39;;;;;;;17.73;6.50;;;8.90;90.20;;;;;;5103865;28;20044;-55
2023/02/03 02:52:04;;;;;;;21.83;7.18;;;8.90;90.40;;;;;;5103678;28;20024;-56
2023/02/03 02:54:30;;;;;;;21.25;7.18;;;8.90;90.70;;;;;;5103743;28;20405;-56
2023/02/03 02:56:59;;;;;;;20.08;6.50;;;8.90;90.80;;;;;;5105253;28;20428;-56
2023/02/03 02:59:25;;;;;;;26.42;7.30;;;8.90;90.90;;;;;;5103617;28;20036;-56
2023/02/03 03:01:50;;;;;;;22.75;6.72;;;8.90;91.00;;;;;;5104323;28;20039;-56
2023/02/03 03:04:18;;;;;;;26.05;7.30;;;8.90;91.00;;;;;;5103433;28;20028;-56
2023/02/03 03:06:45;;;;;;;25.88;6.97;;;9.00;91.00;;;;;;5086637;28;20021;-56
2023/02/03 03:09:21;;;;;;;19.70;7.45;;;9.00;91.00;;;;;;5104745;28;20028;-56
2023/02/03 03:11:53;;;;;;;18.08;6.93;;;9.00;91.00;;;;;;5103392;28;20031;-56
2023/02/03 03:14:19;;;;;;;26.63;7.38;;;9.00;91.00;;;;;;5103583;28;20056;-56
2023/02/03 03:16:47;;;;;;;24.38;7.68;;;9.00;91.00;;;;;;5103628;28;20035;-56
2023/02/03 03:19:17;;;;;;;17.83;7.32;;;9.00;91.00;;;;;;5103372;28;20040;-56
2023/02/03 03:21:46;;;;;;;19.73;6.25;;;9.00;91.00;;;;;;5103860;28;20052;-56
2023/02/03 03:24:17;;;;;;;23.02;7.45;;;9.00;91.00;;;;;;5103216;28;20090;-55
2023/02/03 03:26:50;;;;;;;18.85;8.00;;;9.00;91.00;;;;;;5103566;28;20082;-55
2023/02/03 03:29:33;;;;;;;25.17;8.77;;;9.00;90.90;;;;;;5106442;28;20064;-55
2023/02/03 03:32:00;;;;;;;16.45;7.53;;;9.00;90.90;;;;;;5091176;28;20112;-56
2023/02/03 03:34:26;;;;;;;16.35;7.82;;;9.00;90.90;;;;;;5107838;28;20032;-55
2023/02/03 03:37:06;;;;;;;17.73;6.65;;;9.00;90.90;;;;;;5107723;28;20183;-56
2023/02/03 03:39:38;;;;;;;21.33;6.13;;;9.00;90.80;;;;;;5108695;28;20036;-56
2023/02/03 03:42:16;;;;;;;17.15;6.53;;;9.00;90.70;;;;;;5107153;28;20024;-56
2023/02/03 03:45:01;;;;;;;17.67;6.15;;;9.00;90.70;;;;;;5107065;28;20081;-56
2023/02/03 03:47:31;;;;;;;18.17;5.97;;;9.00;90.70;;;;;;5107355;28;20020;-56
2023/02/03 03:49:57;;;;;;;18.42;7.30;;;9.00;90.70;;;;;;5106615;28;20099;-56
2023/02/03 03:52:25;;;;;;;17.88;7.10;;;9.00;90.70;;;;;;5106954;28;20068;-56
2023/02/03 03:54:52;;;;;;;17.63;6.70;;;9.00;90.70;;;;;;5107681;28;20052;-56
2023/02/03 03:57:25;;;;;;;18.73;6.28;;;9.00;90.60;;;;;;5089397;28;20020;-56
2023/02/03 03:59:51;;;;;;;18.02;6.60;;;9.00;90.50;;;;;;5107013;28;20051;-56
2023/02/03 04:02:17;;;;;;;17.95;5.85;;;9.00;90.50;;;;;;5106401;28;20023;-56
2023/02/03 04:04:43;;;;;;;14.93;6.55;;;9.00;90.40;;;;;;5106616;28;20157;-55
2023/02/03 04:07:08;;;;;;;15.48;6.03;;;9.00;90.40;;;;;;5106898;28;20024;-55
2023/02/03 04:09:35;;;;;;;15.05;6.75;;;9.00;90.30;;;;;;5107714;28;20060;-56
2023/02/03 04:12:02;;;;;;;17.45;6.05;;;9.00;90.30;;;;;;5107052;28;20029;-56
2023/02/03 04:14:32;;;;;;;15.57;6.40;;;9.00;90.60;;;;;;5107627;28;20066;-56
2023/02/03 04:16:58;;;;;;;17.17;6.40;;;9.00;90.30;;;;;;5106414;28;20031;-56
2023/02/03 04:19:24;;;;;;;16.38;5.95;;;9.00;90.30;;;;;;5108212;28;20032;-56
2023/02/03 04:21:49;;;;;;;13.38;6.22;;;9.00;90.30;;;;;;5106319;28;20016;-56
2023/02/03 04:24:15;;;;;;;17.10;6.40;;;9.00;90.20;;;;;;5106828;28;20024;-56
2023/02/03 04:26:41;;;;;;;17.52;5.70;;;9.00;90.10;;;;;;5089467;28;20110;-56
2023/02/03 04:29:06;;;;;;;14.57;6.45;;;9.00;90.10;;;;;;5088887;28;20035;-56
2023/02/03 04:31:32;;;;;;;22.23;6.18;;;8.90;90.10;;;;;;5107696;28;20024;-55
2023/02/03 04:33:57;;;;;;;12.95;5.25;;;8.90;90.10;;;;;;5107417;28;20039;-55
2023/02/03 04:36:23;;;;;;;13.50;5.80;;;9.00;90.10;;;;;;5106146;28;20028;-55
2023/02/03 04:38:49;;;;;;;15.95;5.78;;;8.90;90.00;;;;;;5107361;28;20088;-56
2023/02/03 04:41:14;;;;;;;83.25;12.93;;;8.90;90.00;;;;;;5106992;28;20032;-56
2023/02/03 04:43:40;;;;;;;38.15;8.00;;;8.90;90.00;;;;;;5105925;28;20492;-55
2023/02/03 04:46:05;;;;;;;24.88;6.53;;;8.90;89.80;;;;;;5105967;28;20030;-55
2023/02/03 04:48:31;;;;;;;30.17;7.72;;;8.90;90.00;;;;;;5105449;28;20070;-56
2023/02/03 04:51:02;;;;;;;36.60;7.30;;;8.90;89.80;;;;;;5106070;28;20039;-55
2023/02/03 04:53:27;;;;;;;27.65;6.40;;;8.90;89.80;;;;;;5088779;28;20031;-55
2023/02/03 04:55:53;;;;;;;24.98;7.18;;;8.80;89.70;;;;;;5105716;28;20107;-56
2023/02/03 04:58:18;;;;;;;27.80;6.15;;;8.80;89.70;;;;;;5105993;28;20034;-56
2023/02/03 05:00:44;;;;;;;33.90;6.70;;;8.80;90.00;;;;;;5106747;28;20028;-56
2023/02/03 05:03:09;;;;;;;43.67;6.35;;;8.80;90.00;;;;;;5106775;28;20028;-55
2023/02/03 05:05:35;;;;;;;32.05;7.53;;;8.80;89.90;;;;;;5106776;28;20039;-56
2023/02/03 05:08:01;;;;;;;21.42;6.60;;;8.80;89.90;;;;;;5105256;28;20028;-56
2023/02/03 05:10:26;;;;;;;19.75;5.90;;;8.80;89.90;;;;;;5107154;28;20028;-56
2023/02/03 05:12:52;;;;;;;23.20;5.53;;;8.80;89.60;;;;;;5105346;28;20032;-56
2023/02/03 05:15:17;;;;;;;24.55;6.20;;;8.80;89.60;;;;;;5105244;28;20028;-56
2023/02/03 05:17:43;;;;;;;16.25;5.43;;;8.80;89.70;;;;;;5105600;28;20051;-56
2023/02/03 05:20:09;;;;;;;20.45;5.40;;;8.80;89.70;;;;;;5104944;28;20036;-55
2023/02/03 05:22:34;;;;;;;35.30;6.00;;;8.80;89.60;;;;;;5106638;28;20028;-56
2023/02/03 05:25:01;;;;;;;18.27;5.40;;;8.80;90.10;;;;;;5106538;28;20529;-55
2023/02/03 05:27:26;;;;;;;19.42;5.43;;;8.80;89.60;;;;;;5104922;28;20026;-55
2023/02/03 05:29:52;;;;;;;17.88;4.78;;;8.80;89.60;;;;;;5105409;28;20045;-55
2023/02/03 05:32:17;;;;;;;22.73;5.60;;;8.80;89.60;;;;;;5104996;28;20032;-56
2023/02/03 05:34:43;;;;;;;23.70;6.07;;;8.80;90.00;;;;;;5088040;28;20118;-55
2023/02/03 05:37:08;;;;;;;19.35;5.55;;;8.80;89.50;;;;;;5106517;28;20028;-56
2023/02/03 05:39:34;;;;;;;18.02;5.22;;;8.80;89.50;;;;;;5104726;28;20472;-56
2023/02/03 05:41:59;;;;;;;32.35;6.10;;;8.80;89.50;;;;;;5105019;28;20097;-56
2023/02/03 05:44:26;;;;;;;18.27;5.55;;;8.80;89.50;;;;;;5104950;28;20020;-55
2023/02/03 05:46:52;;;;;;;17.85;5.03;;;8.80;89.70;;;;;;5104699;28;20020;-56
2023/02/03 05:49:18;;;;;;;17.90;5.70;;;8.80;89.80;;;;;;5087861;28;20032;-55
2023/02/03 05:51:45;;;;;;;18.40;5.10;;;8.80;90.00;;;;;;5103873;28;20051;-56
2023/02/03 05:54:10;;;;;;;21.00;4.97;;;8.80;90.00;;;;;;5104807;28;20161;-56
2023/02/03 05:56:36;;;;;;;16.65;5.90;;;8.80;90.00;;;;;;5104452;28;20028;-56
2023/02/03 05:59:02;;;;;;;21.20;4.70;;;8.70;90.00;;;;;;5104255;28;20024;-55
2023/02/03 06:01:27;;;;;;;21.80;5.05;;;8.80;90.20;;;;;;5106114;28;20027;-55
2023/02/03 06:03:53;;;;;;;24.20;5.88;;;8.80;90.30;;;;;;5104473;28;20043;-55
2023/02/03 06:06:18;;;;;;;26.17;5.10;;;8.80;90.30;;;;;;5104370;28;20483;-56
2023/02/03 06:08:44;;;;;;;20.70;5.25;;;8.80;90.40;;;;;;5104522;28;20024;-56
2023/02/03 06:11:09;;;;;;;17.33;4.45;;;8.70;90.40;;;;;;5104283;28;20040;-56
2023/02/03 06:13:35;;;;;;;20.15;5.60;;;8.70;90.40;;;;;;5104397;28;20024;-56
2023/02/03 06:16:01;;;;;;;20.45;4.60;;;8.70;90.40;;;;;;5104268;28;20035;-56
2023/02/03 06:18:26;;;;;;;16.98;4.68;;;8.70;90.40;;;;;;5105228;28;20028;-56
2023/02/03 06:20:52;;;;;;;13.02;5.15;;;8.70;90.40;;;;;;5104477;28;20032;-55
2023/02/03 06:23:18;;;;;;;15.95;4.45;;;8.70;90.40;;;;;;5104105;28;20071;-56
2023/02/03 06:25:44;;;;;;;20.65;4.43;;;8.70;90.40;;;;;;5105511;28;20020;-56
2023/02/03 06:28:10;;;;;;;14.48;4.18;;;8.70;90.50;;;;;;5104373;28;20225;-56
2023/02/03 06:30:35;;;;;;;16.33;4.25;;;8.70;90.60;;;;;;5103777;28;20035;-56
2023/02/03 06:33:01;;;;;;;14.40;4.18;;;8.70;90.70;;;;;;5104180;28;20036;-55
2023/02/03 06:35:27;;;;;;;11.35;4.28;;;8.70;90.60;;;;;;5104337;28;20471;-56
2023/02/03 06:37:52;;;;;;;14.25;4.13;;;8.70;90.70;;;;;;5104030;28;20077;-55
2023/02/03 06:40:18;;;;;;;10.07;4.35;;;8.70;90.60;;;;;;5105350;28;20040;-56
2023/02/03 06:42:45;;;;;;;22.13;4.60;;;8.70;90.60;;;;;;5105025;28;20422;-55
2023/02/03 06:45:11;;;;;;;12.75;4.13;;;8.70;90.70;;;;;;5105152;28;20028;-55
2023/02/03 06:47:40;;;;;;;19.38;4.03;;;8.70;90.60;;;;;;5103432;28;20097;-55
2023/02/03 06:50:06;;;;;;;10.50;4.25;;;8.70;90.50;;;;;;5105068;28;20432;-55
2023/02/03 06:52:32;;;;;;;13.80;3.60;;;8.70;90.50;;;;;;5103545;28;20138;-55
2023/02/03 06:54:57;;;;;;;12.13;4.05;;;8.70;90.40;;;;;;5104930;28;20398;-56
2023/02/03 06:57:23;;;;;;;13.48;4.13;;;8.70;90.40;;;;;;5103539;28;20032;-55
2023/02/03 06:59:48;;;;;;;8.40;3.67;;;8.70;90.40;;;;;;5103435;28;20059;-56
2023/02/03 07:02:14;;;;;;;9.73;3.60;;;8.70;90.40;;;;;;5104792;28;20027;-55
2023/02/03 07:04:42;;;;;;;14.80;3.60;;;8.70;90.30;;;;;;5107636;28;20491;-55
2023/02/03 07:07:08;;;;;;;13.18;3.65;;;8.70;90.30;;;;;;5107539;28;20024;-56
2023/02/03 07:09:33;;;;;;;9.45;3.83;;;8.70;90.30;;;;;;5108293;28;20038;-56
2023/02/03 07:11:59;;;;;;;10.98;3.65;;;8.70;90.50;;;;;;5108865;28;20024;-56
2023/02/03 07:14:24;;;;;;;17.75;4.22;;;8.70;90.20;;;;;;5109422;28;20157;-56
2023/02/03 07:16:50;;;;;;;7.57;3.13;;;8.60;90.20;;;;;;5108986;28;20035;-55
2023/02/03 07:19:15;;;;;;;11.40;3.45;;;8.60;90.20;;;;;;5107250;28;20464;-56
2023/02/03 07:21:41;;;;;;;10.18;3.22;;;8.60;90.10;;;;;;5108553;28;20349;-56
2023/02/03 07:24:06;;;;;;;11.95;3.65;;;8.60;90.10;;;;;;5107166;28;20054;-55
2023/02/03 07:26:32;;;;;;;9.85;3.42;;;8.60;90.00;;;;;;5107145;28;20329;-56
2023/02/03 07:28:59;;;;;;;12.13;3.17;;;8.60;90.00;;;;;;5108548;28;20415;-55
2023/02/03 07:31:25;;;;;;;12.23;3.10;;;8.60;90.00;;;;;;5107081;28;20035;-56
2023/02/03 07:33:50;;;;;;;9.52;3.35;;;8.60;90.00;;;;;;5107155;28;20036;-56
2023/02/03 07:36:16;;;;;;;11.13;3.00;;;8.60;90.00;;;;;;5107148;28;20020;-56
2023/02/03 07:38:41;;;;;;;8.93;3.10;;;8.60;90.00;;;;;;5107115;28;20028;-56
2023/02/03 07:41:07;;;;;;;12.27;2.95;;;8.60;90.00;;;;;;5106796;28;20025;-55
2023/02/03 07:43:33;;;;;;;13.73;2.65;;;8.60;89.90;;;;;;5108197;28;20024;-55
2023/02/03 07:45:58;;;;;;;7.57;2.75;;;8.60;89.70;;;;;;5106908;28;20016;-55
2023/02/03 07:48:24;;;;;;;7.38;2.38;;;8.60;89.60;;;;;;5106962;28;20028;-56
2023/02/03 07:50:51;;;;;;;9.75;3.03;;;8.50;89.50;;;;;;5087960;28;20043;-56
2023/02/03 07:53:17;;;;;;;8.70;3.15;;;8.50;89.50;;;;;;5101502;28;20113;-56
2023/02/03 07:55:42;;;;;;;7.07;2.72;;;8.60;89.60;;;;;;5086765;28;20049;-55
2023/02/03 07:58:08;;;;;;;14.60;2.97;;;8.60;89.60;;;;;;5096607;28;20044;-55
2023/02/03 08:00:33;;;;;;;9.07;3.00;;;8.50;89.50;;;;;;5099659;28;20030;-56
2023/02/03 08:02:59;;;;;;;5.80;2.60;;;8.60;89.70;;;;;;5102862;28;20111;-56
2023/02/03 08:05:25;;;;;;;7.57;2.97;;;8.60;89.60;;;;;;5103400;28;20471;-55
2023/02/03 08:07:50;;;;;;;10.52;3.15;;;8.60;89.60;;;;;;5086587;28;20020;-56
2023/02/03 08:10:16;;;;;;;11.68;2.90;;;8.60;89.50;;;;;;5098653;28;20053;-55
2023/02/03 08:12:43;;;;;;;10.63;2.40;;;8.60;89.40;;;;;;5095852;28;20024;-56
2023/02/03 08:15:09;;;;;;;6.88;2.58;;;8.60;89.40;;;;;;5092258;28;20046;-56
2023/02/03 08:17:34;;;;;;;10.90;2.88;;;8.60;89.30;;;;;;5105853;28;20020;-55
2023/02/03 08:20:00;;;;;;;8.70;2.53;;;8.60;89.10;;;;;;5103562;28;20039;-55
2023/02/03 08:22:25;;;;;;;27.25;3.33;;;8.60;89.10;;;;;;5094808;28;20040;-56
2023/02/03 08:24:51;;;;;;;9.77;3.03;;;8.60;89.10;;;;;;5097150;28;20031;-55
2023/02/03 08:27:18;;;;;;;19.38;3.30;;;8.60;89.10;;;;;;5083642;28;20020;-56
2023/02/03 08:29:44;;;;;;;15.63;3.30;;;8.70;89.20;;;;;;5102316;28;20021;-55
2023/02/03 08:32:11;;;;;;;78.57;7.75;;;8.70;89.40;;;;;;5087154;28;20080;-55
2023/02/03 08:34:37;;;;;;;26.88;3.63;;;8.70;89.30;;;;;;5085266;28;20088;-55
2023/02/03 08:37:03;;;;;;;20.67;4.13;;;8.70;89.30;;;;;;5084866;28;20154;-56
2023/02/03 08:39:28;;;;;;;27.92;4.75;;;8.80;89.50;;;;;;5084833;28;20032;-56
2023/02/03 08:41:54;;;;;;;32.78;5.00;;;8.70;89.00;;;;;;5086388;28;20477;-55
2023/02/03 08:44:19;;;;;;;43.28;4.38;;;8.70;89.00;;;;;;5082044;28;20029;-56
2023/02/03 08:46:49;;;;;;;22.05;4.00;;;8.80;89.10;;;;;;5082251;28;20028;-56
2023/02/03 08:49:14;;;;;;;37.78;5.63;;;8.80;89.00;;;;;;5088903;28;20054;-56
2023/02/03 08:51:40;;;;;;;30.23;4.80;;;8.80;89.10;;;;;;5101212;28;20052;-56
2023/02/03 08:54:05;;;;;;;26.85;4.50;;;8.80;89.00;;;;;;5104360;28;20028;-55
2023/02/03 08:56:32;;;;;;;28.63;4.70;;;8.80;88.80;;;;;;5102864;28;20020;-55
2023/02/03 08:58:58;;;;;;;30.65;5.47;;;8.80;88.80;;;;;;5102602;28;20082;-56
2023/02/03 09:01:24;;;;;;;26.95;4.50;;;8.80;88.60;;;;;;5105332;28;20430;-56
2023/02/03 09:03:49;;;;;;;34.88;5.03;;;8.80;88.50;;;;;;5106888;28;20028;-56
2023/02/03 09:06:15;;;;;;;43.28;5.30;;;8.80;88.40;;;;;;5083928;28;20017;-55
2023/02/03 09:08:44;;;;;;;38.15;5.18;;;8.90;88.40;;;;;;5086343;28;20035;-56
2023/02/03 09:11:11;;;;;;;41.58;4.97;;;8.90;88.30;;;;;;5093008;28;20067;-55
2023/02/03 09:13:37;;;;;;;41.38;5.80;;;8.90;88.30;;;;;;5103180;28;20089;-56
2023/02/03 09:16:06;;;;;;;40.42;6.32;;;8.90;88.30;;;;;;5092066;28;20084;-55
2023/02/03 09:18:32;;;;;;;32.00;5.13;;;8.90;88.30;;;;;;5104144;28;20039;-55
2023/02/03 09:21:02;;;;;;;47.33;5.95;;;8.90;88.20;;;;;;5071266;28;20032;-55
2023/02/03 09:23:27;;;;;;;37.42;5.00;;;8.90;88.10;;;;;;5097351;28;20020;-55
2023/02/03 09:25:53;;;;;;;50.08;7.07;;;8.90;88.00;;;;;;5094749;28;20028;-55
2023/02/03 09:28:18;;;;;;;40.72;5.88;;;9.00;88.00;;;;;;5094424;28;20020;-56
2023/02/03 09:30:44;;;;;;;49.05;5.70;;;9.00;88.00;;;;;;5091919;28;20121;-56
2023/02/03 09:33:09;;;;;;;39.42;5.20;;;8.90;87.70;;;;;;5101534;28;20027;-56
2023/02/03 09:35:35;;;;;;;44.28;7.10;;;9.00;87.50;;;;;;5101419;28;20032;-56
2023/02/03 09:38:00;;;;;;;35.80;6.18;;;9.00;87.60;;;;;;5112015;28;20032;-56
2023/02/03 09:40:28;;;;;;;44.97;6.40;;;9.00;87.60;;;;;;5113329;28;20077;-56
2023/02/03 09:43:12;;;;;;;39.85;5.38;;;9.00;87.50;;;;;;5103412;28;20065;-56
2023/02/03 09:45:37;;;;;;;46.72;5.78;;;9.00;87.60;;;;;;5104430;28;20028;-55
2023/02/03 09:48:12;;;;;;;53.90;7.18;;;9.00;87.50;;;;;;5103873;28;20026;-56
2023/02/03 09:50:38;;;;;;;59.50;6.95;;;9.00;87.40;;;;;;5104805;28;20476;-56
2023/02/03 09:53:38;;;;;;;53.80;7.13;;;9.00;87.80;;;;;;5104506;28;20046;-56
2023/02/03 09:56:03;;;;;;;40.40;6.65;;;9.00;87.00;;;;;;5082412;28;20043;-55
2023/02/03 09:58:32;;;;;;;39.30;6.57;;;9.10;87.10;;;;;;5087010;28;20020;-56
2023/02/03 10:01:08;;;;;;;64.65;7.63;;;9.10;87.00;;;;;;5104002;28;20107;-56
2023/02/03 10:03:41;;;;;;;44.67;7.30;;;9.10;86.90;;;;;;5103738;28;20027;-55
2023/02/03 10:06:08;;;;;;;41.45;6.32;;;9.10;87.00;;;;;;5103850;28;20027;-56
2023/02/03 10:08:49;;;;;;;47.90;7.20;;;9.10;86.90;;;;;;5102615;28;20030;-55
2023/02/03 10:11:27;;;;;;;68.43;8.63;;;9.20;86.90;;;;;;5105096;28;20020;-55
2023/02/03 10:14:12;;;;;;;51.78;6.68;;;9.10;87.00;;;;;;5105016;28;20040;-55
2023/02/03 10:16:56;;;;;;;53.22;6.85;;;9.20;86.70;;;;;;5103815;28;20052;-56
2023/02/03 10:19:26;;;;;;;47.35;6.90;;;9.20;86.50;;;;;;5104940;28;20064;-55
2023/02/03 10:21:54;;;;;;;54.58;5.88;;;9.20;86.60;;;;;;5103389;28;20035;-56
2023/02/03 10:24:45;;;;;;;36.55;6.45;;;9.20;86.40;;;;;;5086598;28;20033;-55
2023/02/03 10:27:16;;;;;;;47.20;6.97;;;9.20;86.30;;;;;;5103912;28;20088;-55
2023/02/03 10:29:41;;;;;;;86.07;8.40;;;9.20;86.20;;;;;;5103971;28;20044;-56
2023/02/03 10:32:09;;;;;;;64.97;8.25;;;9.30;86.30;;;;;;5103721;28;20073;-56
2023/02/03 10:34:35;;;;;;;75.75;8.10;;;9.30;86.30;;;;;;5105399;28;20032;-56
2023/02/03 10:37:13;;;;;;;81.43;9.02;;;9.30;86.40;;;;;;5103492;28;20032;-56
2023/02/03 10:39:44;;;;;;;80.53;10.15;;;9.30;86.40;;;;;;5108067;28;20035;-56
2023/02/03 10:42:10;;;;;;;65.18;9.02;;;9.40;87.40;;;;;;5103307;28;20024;-55
2023/02/03 10:44:37;;;;;;;63.15;8.43;;;9.40;86.80;;;;;;5103301;28;20042;-55
2023/02/03 10:47:28;;;;;;;92.88;12.13;;;9.50;86.50;;;;;;5086307;28;20024;-55
2023/02/03 10:49:54;;;;;;;105.63;12.93;;;9.50;86.80;;;;;;5103748;28;20036;-55
2023/02/03 10:52:31;;;;;;;106.80;11.90;;;9.60;87.00;;;;;;5103189;28;20036;-56
2023/02/03 10:54:58;;;;;;;100.50;11.32;;;9.60;87.40;;;;;;5104725;28;20051;-56
2023/02/03 10:57:24;;;;;;;111.70;14.30;;;9.70;87.40;;;;;;5103117;28;20024;-55
2023/02/03 10:59:49;;;;;;;131.43;14.70;;;9.70;87.00;;;;;;5103197;28;20038;-56
2023/02/03 11:02:28;;;;;;;131.65;13.05;;;9.70;86.60;;;;;;5102842;28;20043;-56
2023/02/03 11:05:15;;;;;;;107.00;12.48;;;9.80;86.60;;;;;;5102958;28;20145;-55
2023/02/03 11:07:41;;;;;;;134.25;15.05;;;9.70;86.40;;;;;;5104363;28;20069;-55
2023/02/03 11:10:39;;;;;;;148.70;14.15;;;9.80;86.30;;;;;;5102745;28;20020;-56
2023/02/03 11:13:24;;;;;;;139.93;14.00;;;9.90;86.20;;;;;;5093425;28;20024;-55
2023/02/03 11:15:50;;;;;;;150.20;13.07;;;9.90;86.70;;;;;;5103949;28;20206;-56
2023/02/03 11:18:38;;;;;;;366.73;38.78;;;10.00;86.90;;;;;;5104297;28;20096;-56
2023/02/03 11:21:37;;;;;;;174.55;16.60;;;10.00;87.00;;;;;;5102794;28;20036;-55
2023/02/03 11:24:10;;;;;;;114.63;12.25;;;10.10;86.70;;;;;;5094673;28;20068;-56
2023/02/03 11:26:47;;;;;;;130.15;13.98;;;10.10;86.60;;;;;;5087577;28;20035;-55
2023/02/03 11:29:17;;;;;;;131.80;12.95;;;10.20;86.30;;;;;;5076620;28;20037;-55
2023/02/03 11:31:45;;;;;;;104.97;11.85;;;10.20;86.00;;;;;;5099328;28;20038;-55
2023/02/03 11:34:15;;;;;;;113.45;12.27;;;10.20;85.80;;;;;;5097623;28;20089;-55
2023/02/03 11:36:41;;;;;;;111.20;11.35;;;10.20;85.40;;;;;;5084698;28;20457;-56
2023/02/03 11:39:24;;;;;;;63.30;9.93;;;10.20;84.80;;;;;;5079724;28;20029;-56
2023/02/03 11:41:50;;;;;;;77.93;10.25;;;10.20;84.50;;;;;;5081879;28;20025;-56
2023/02/03 11:44:17;;;;;;;71.65;10.05;;;10.20;84.50;;;;;;5068931;28;20032;-55
2023/02/03 11:46:44;;;;;;;91.13;10.85;;;10.20;84.70;;;;;;5098229;28;20027;-55
2023/02/03 11:49:30;;;;;;;95.45;12.13;;;10.20;85.00;;;;;;5082051;28;20036;-55
2023/02/03 11:52:06;;;;;;;113.22;13.27;;;10.30;84.70;;;;;;5105356;28;20046;-55
2023/02/03 11:55:04;;;;;;;154.77;14.40;;;10.30;84.70;;;;;;5082127;28;20039;-56
2023/02/03 11:57:43;;;;;;;92.82;9.20;;;10.30;84.60;;;;;;5029596;28;20052;-56
2023/02/03 12:00:33;;;;;;;90.05;9.75;;;10.30;84.30;;;;;;5085608;28;20100;-56
2023/02/03 12:03:21;;;;;;;106.20;11.82;;;10.40;84.10;;;;;;5095597;28;20028;-56
2023/02/03 12:06:09;;;;;;;89.43;10.43;;;10.40;84.10;;;;;;5090022;28;20028;-55
2023/02/03 12:08:50;;;;;;;112.75;11.82;;;10.50;83.80;;;;;;5090198;28;20084;-55
2023/02/03 12:11:19;;;;;;;134.20;13.48;;;10.40;84.00;;;;;;5088471;28;20063;-56
2023/02/03 12:13:47;;;;;;;116.53;12.88;;;10.50;83.70;;;;;;5101335;28;20023;-55
2023/02/03 12:16:34;;;;;;;117.30;10.88;;;10.50;83.80;;;;;;5101925;28;20016;-56
2023/02/03 12:19:26;;;;;;;152.93;12.73;;;10.50;83.50;;;;;;5102446;28;20257;-56
2023/02/03 12:21:57;;;;;;;75.25;9.43;;;10.50;83.60;;;;;;5104651;28;20079;-56
2023/02/03 12:25:02;;;;;;;89.32;9.27;;;10.50;83.30;;;;;;5104327;28;20049;-56
2023/02/03 12:27:55;;;;;;;61.97;8.45;;;10.60;82.90;;;;;;5087439;28;20024;-56
2023/02/03 12:30:26;;;;;;;56.25;8.32;;;10.60;82.70;;;;;;5102538;28;20032;-56
2023/02/03 12:32:58;;;;;;;85.55;9.02;;;10.70;82.40;;;;;;5083220;28;20020;-56
2023/02/03 12:35:31;;;;;;;102.13;11.73;;;10.70;82.20;;;;;;5083118;28;20039;-56
2023/02/03 12:38:07;;;;;;;153.20;15.88;;;10.70;82.50;;;;;;5099666;28;20032;-56
2023/02/03 12:40:41;;;;;;;;;;;10.80;83.50;;;;;;5097243;28;20119;-56
2023/02/03 12:43:21;;;;;;;95.97;11.35;;;10.80;83.40;;;;;;5090458;28;19911;-55
2023/02/03 12:46:01;;;;;;;156.38;17.42;;;10.80;83.00;;;;;;5101970;28;20092;-55
2023/02/03 12:48:59;;;;;;;104.85;12.52;;;10.80;82.80;;;;;;5086169;28;20155;-55
2023/02/03 12:51:36;;;;;;;112.22;12.13;;;10.80;82.70;;;;;;5016512;28;20040;-56
2023/02/03 12:54:06;;;;;;;95.78;11.05;;;10.80;82.60;;;;;;5092595;28;20032;-56
2023/02/03 12:56:39;;;;;;;116.80;12.95;;;10.80;82.70;;;;;;5089708;28;20105;-55